Chatham, New York
Current Conditions -  °F | °C
As of 6:54 AM on Tuesday 21 Oct 2014 (Local Time) from KPSF Reporting Station
Overcast Overcast  
Wind Chill: 44°   Ceiling: 6000
Heat Index: 44°   Visibility: 7mi
Dew Point: 43°   Wind: 3mph
Humidity: 96%   Direction: 240°WSW
Pressure: 29.91"   Gusts: NA
Location:  42.36°N, 73.59°W
Report Text: KPSF 211054Z AUTO 24003KT 7SM FEW038 OVC060 07/06 A2991 RMK AO2 SLP124 T00670061
Loading
Personal Weather Stations






























Interactive Weather Map
Tropical Storm Tracking
New forecast layout! Learn more

10-Day Weather Forecast

Advertisements
Track Severe Weather on mobile